Time;durP1;ratioP1;P1;durP2;ratioP2;P2;SDS_P1;SDS_P2;PMS_P1;PMS_P2;Temp;Humidity;BMP_temperature;BMP_pressure;BME280_temperature;BME280_humidity;BME280_pressure;Samples;Min_cycle;Max_cycle;Signal;HPM_P1;HPM_P2
2023/08/20 00:00:16;;;;;;;15.27;3.00;;;;;;;;;;6126910;23;20021;-42
2023/08/20 00:02:45;;;;;;;18.52;3.30;;;;;;;;;;6125167;23;20044;-42
2023/08/20 00:05:13;;;;;;;15.53;3.37;;;;;;;;;;6127193;23;20052;-43
2023/08/20 00:07:42;;;;;;;19.85;3.65;;;;;;;;;;6123486;23;20118;-42
2023/08/20 00:10:13;;;;;;;18.23;3.22;;;;;;;;;;6130715;23;20060;-42
2023/08/20 00:12:40;;;;;;;20.83;3.58;;;;;;;;;;6120472;23;20086;-41
2023/08/20 00:15:10;;;;;;;18.23;3.17;;;;;;;;;;6125568;23;20044;-42
2023/08/20 00:17:38;;;;;;;18.03;2.70;;;;;;;;;;6118381;23;20122;-41
2023/08/20 00:20:10;;;;;;;13.45;2.92;;;;;;;;;;6129201;23;20018;-41
2023/08/20 00:22:38;;;;;;;22.25;3.53;;;;;;;;;;6116614;23;20021;-43
2023/08/20 00:25:06;;;;;;;17.00;3.25;;;;;;;;;;6122548;23;20028;-42
2023/08/20 00:27:34;;;;;;;15.75;2.83;;;;;;;;;;6118037;23;20017;-43
2023/08/20 00:30:03;;;;;;;20.00;2.97;;;;;;;;;;6150448;23;20352;-42
2023/08/20 00:32:32;;;;;;;14.95;2.92;;;;;;;;;;6122797;23;20090;-42
2023/08/20 00:35:00;;;;;;;19.90;2.42;;;;;;;;;;6129363;23;20024;-41
2023/08/20 00:37:29;;;;;;;19.13;3.45;;;;;;;;;;6118844;23;20468;-44
2023/08/20 00:39:57;;;;;;;13.88;3.08;;;;;;;;;;6122914;23;20100;-43
2023/08/20 00:42:26;;;;;;;17.23;2.63;;;;;;;;;;6118344;23;20021;-42
2023/08/20 00:44:54;;;;;;;18.88;3.83;;;;;;;;;;6131803;23;20098;-42
2023/08/20 00:47:22;;;;;;;19.77;3.15;;;;;;;;;;6127505;23;20014;-46
2023/08/20 00:49:55;;;;;;;18.17;3.33;;;;;;;;;;6120616;23;20017;-44
2023/08/20 00:52:23;;;;;;;18.40;4.32;;;;;;;;;;6129655;23;20018;-42
2023/08/20 00:54:51;;;;;;;17.13;4.23;;;;;;;;;;6118096;23;20021;-42
2023/08/20 00:57:20;;;;;;;16.65;3.33;;;;;;;;;;6127530;23;20017;-42
2023/08/20 00:59:49;;;;;;;21.88;3.42;;;;;;;;;;6125887;23;20028;-43
2023/08/20 01:02:17;;;;;;;19.58;3.58;;;;;;;;;;6125916;23;20022;-43
2023/08/20 01:04:46;;;;;;;20.42;4.00;;;;;;;;;;6105730;23;20088;-42
2023/08/20 01:07:18;;;;;;;17.33;3.53;;;;;;;;;;6128145;23;20025;-42
2023/08/20 01:09:52;;;;;;;15.30;3.08;;;;;;;;;;6127000;23;20025;-43
2023/08/20 01:12:21;;;;;;;16.48;4.07;;;;;;;;;;6133688;23;20017;-42
2023/08/20 01:14:48;;;;;;;21.13;3.53;;;;;;;;;;6110589;23;20753;-42
2023/08/20 01:17:16;;;;;;;19.02;3.10;;;;;;;;;;6128799;23;20021;-43
2023/08/20 01:19:44;;;;;;;14.33;2.93;;;;;;;;;;6118752;23;20060;-43
2023/08/20 01:22:22;;;;;;;20.92;4.15;;;;;;;;;;6128350;23;20061;-42
2023/08/20 01:25:00;;;;;;;21.30;3.80;;;;;;;;;;6115410;23;20068;-42
2023/08/20 01:27:40;;;;;;;15.90;3.35;;;;;;;;;;6128989;23;20076;-43
2023/08/20 01:30:10;;;;;;;24.98;4.35;;;;;;;;;;6131762;23;20095;-42
2023/08/20 01:32:37;;;;;;;18.23;3.60;;;;;;;;;;6117891;23;20017;-43
2023/08/20 01:35:06;;;;;;;14.30;3.20;;;;;;;;;;6128104;23;20013;-42
2023/08/20 01:37:33;;;;;;;16.30;3.45;;;;;;;;;;6120839;23;20192;-44
2023/08/20 01:40:03;;;;;;;20.10;3.38;;;;;;;;;;6109110;23;20101;-42
2023/08/20 01:42:31;;;;;;;19.92;3.38;;;;;;;;;;6135668;23;20096;-43
2023/08/20 01:44:59;;;;;;;21.23;3.80;;;;;;;;;;6115407;23;20025;-42
2023/08/20 01:47:34;;;;;;;20.95;4.07;;;;;;;;;;6125406;23;20026;-42
2023/08/20 01:50:04;;;;;;;21.48;3.47;;;;;;;;;;6133740;23;20014;-44
2023/08/20 01:52:34;;;;;;;20.63;3.95;;;;;;;;;;6125480;23;20021;-42
2023/08/20 01:55:02;;;;;;;15.02;3.20;;;;;;;;;;6140704;23;20483;-44
2023/08/20 01:57:30;;;;;;;21.73;4.10;;;;;;;;;;6128157;23;20040;-42
2023/08/20 01:59:58;;;;;;;22.77;3.97;;;;;;;;;;6121050;23;20022;-46
2023/08/20 02:02:26;;;;;;;22.73;3.95;;;;;;;;;;6130405;23;20014;-45
2023/08/20 02:04:55;;;;;;;22.30;3.83;;;;;;;;;;6133600;23;20440;-43
2023/08/20 02:07:23;;;;;;;21.30;4.13;;;;;;;;;;6126161;23;20109;-42
2023/08/20 02:09:51;;;;;;;15.30;4.07;;;;;;;;;;6136277;23;20025;-42
2023/08/20 02:12:18;;;;;;;18.52;3.42;;;;;;;;;;6122541;23;20021;-44
2023/08/20 02:14:49;;;;;;;22.30;3.67;;;;;;;;;;6129847;23;20024;-43
2023/08/20 02:17:16;;;;;;;22.42;3.80;;;;;;;;;;6134970;23;20013;-42
2023/08/20 02:19:44;;;;;;;20.83;3.63;;;;;;;;;;6128711;23;20018;-43
2023/08/20 02:22:13;;;;;;;20.37;3.20;;;;;;;;;;6133595;23;20021;-44
2023/08/20 02:24:41;;;;;;;19.40;3.15;;;;;;;;;;6117275;23;20013;-42
2023/08/20 02:27:09;;;;;;;21.27;3.13;;;;;;;;;;6131344;23;20025;-42
2023/08/20 02:29:38;;;;;;;16.33;3.38;;;;;;;;;;6133187;23;20021;-43
2023/08/20 02:32:05;;;;;;;15.57;3.08;;;;;;;;;;6126340;23;20030;-42
2023/08/20 02:34:33;;;;;;;17.90;2.80;;;;;;;;;;6129613;23;20021;-43
2023/08/20 02:37:01;;;;;;;20.58;4.22;;;;;;;;;;6105138;23;20017;-43
2023/08/20 02:39:31;;;;;;;20.90;3.35;;;;;;;;;;6154513;23;20025;-43
2023/08/20 02:41:58;;;;;;;19.38;3.55;;;;;;;;;;6130322;23;20456;-43
2023/08/20 02:44:26;;;;;;;15.93;3.63;;;;;;;;;;6127109;23;20013;-42
2023/08/20 02:46:54;;;;;;;16.73;3.83;;;;;;;;;;6130391;23;20018;-42
2023/08/20 02:49:21;;;;;;;18.95;3.72;;;;;;;;;;6123106;23;20380;-43
2023/08/20 02:51:49;;;;;;;17.30;3.70;;;;;;;;;;6132077;23;20017;-42
2023/08/20 02:54:17;;;;;;;16.08;3.50;;;;;;;;;;6128827;23;20013;-42
2023/08/20 02:56:46;;;;;;;24.33;3.80;;;;;;;;;;6123098;23;20018;-45
2023/08/20 02:59:13;;;;;;;19.33;3.87;;;;;;;;;;6133543;23;20022;-42
2023/08/20 03:01:41;;;;;;;14.15;3.13;;;;;;;;;;6140670;23;20334;-42
2023/08/20 03:04:10;;;;;;;16.40;3.30;;;;;;;;;;6129773;23;20020;-43
2023/08/20 03:06:37;;;;;;;18.13;3.15;;;;;;;;;;6129453;23;20112;-42
2023/08/20 03:09:05;;;;;;;17.75;3.80;;;;;;;;;;6113741;23;20420;-43
2023/08/20 03:11:33;;;;;;;18.73;3.50;;;;;;;;;;6127634;23;20290;-42
2023/08/20 03:14:03;;;;;;;19.70;3.33;;;;;;;;;;6130386;23;20017;-43
2023/08/20 03:16:30;;;;;;;21.30;3.60;;;;;;;;;;6125928;23;20357;-44
2023/08/20 03:18:58;;;;;;;19.05;3.97;;;;;;;;;;6131408;23;20068;-42
2023/08/20 03:21:26;;;;;;;20.63;3.70;;;;;;;;;;6134564;23;20072;-42
2023/08/20 03:23:54;;;;;;;21.80;3.60;;;;;;;;;;6121662;23;20021;-42
2023/08/20 03:26:21;;;;;;;15.52;3.53;;;;;;;;;;6131284;23;20020;-42
2023/08/20 03:28:49;;;;;;;17.80;3.92;;;;;;;;;;6133244;23;20085;-43
2023/08/20 03:31:19;;;;;;;20.77;3.63;;;;;;;;;;6122395;23;20520;-42
2023/08/20 03:33:47;;;;;;;17.23;3.45;;;;;;;;;;6135577;23;20021;-48
2023/08/20 03:36:14;;;;;;;19.77;3.93;;;;;;;;;;6116279;23;20043;-42
2023/08/20 03:38:42;;;;;;;16.13;4.15;;;;;;;;;;6131895;23;20396;-44
2023/08/20 03:41:10;;;;;;;19.27;3.63;;;;;;;;;;6124525;23;20021;-42
2023/08/20 03:43:37;;;;;;;21.88;4.13;;;;;;;;;;6137312;23;20025;-43
2023/08/20 03:46:05;;;;;;;18.80;3.35;;;;;;;;;;6127675;23;20018;-44
2023/08/20 03:48:34;;;;;;;18.33;3.70;;;;;;;;;;6135969;23;20017;-43
2023/08/20 03:51:01;;;;;;;21.70;3.50;;;;;;;;;;6122796;23;20101;-43
2023/08/20 03:53:29;;;;;;;16.58;4.18;;;;;;;;;;6128767;23;20021;-42
2023/08/20 03:55:57;;;;;;;18.55;3.80;;;;;;;;;;6134937;23;20452;-42
2023/08/20 03:58:24;;;;;;;19.20;3.30;;;;;;;;;;6124878;23;20616;-42
2023/08/20 04:00:52;;;;;;;20.30;3.53;;;;;;;;;;6126778;23;20436;-42
2023/08/20 04:03:20;;;;;;;17.90;3.67;;;;;;;;;;6122101;23;20017;-42
2023/08/20 04:05:50;;;;;;;21.27;3.63;;;;;;;;;;6133193;23;20452;-42
2023/08/20 04:08:18;;;;;;;20.25;4.20;;;;;;;;;;6120114;23;20060;-44
2023/08/20 04:11:03;;;;;;;18.50;3.58;;;;;;;;;;6127995;23;20036;-42
2023/08/20 04:13:31;;;;;;;23.53;4.37;;;;;;;;;;6133884;23;20036;-42
2023/08/20 04:15:58;;;;;;;22.75;3.80;;;;;;;;;;6126635;23;20025;-43
2023/08/20 04:18:26;;;;;;;18.58;2.83;;;;;;;;;;6134127;23;20313;-41
2023/08/20 04:20:57;;;;;;;12.65;2.97;;;;;;;;;;6133254;23;20101;-42
2023/08/20 04:23:25;;;;;;;17.75;3.15;;;;;;;;;;6131864;23;20021;-42
2023/08/20 04:25:53;;;;;;;16.93;3.77;;;;;;;;;;6129409;23;20052;-42
2023/08/20 04:28:21;;;;;;;18.60;3.83;;;;;;;;;;6130016;23;20014;-42
2023/08/20 04:30:49;;;;;;;21.55;4.32;;;;;;;;;;6134481;23;20085;-41
2023/08/20 04:33:16;;;;;;;18.58;3.95;;;;;;;;;;6129514;23;20022;-43
2023/08/20 04:35:44;;;;;;;21.23;4.45;;;;;;;;;;6148614;23;20013;-43
2023/08/20 04:38:16;;;;;;;18.97;3.97;;;;;;;;;;6130415;23;20026;-44
2023/08/20 04:40:46;;;;;;;14.50;3.33;;;;;;;;;;6123523;23;20448;-42
2023/08/20 04:43:14;;;;;;;23.20;3.72;;;;;;;;;;6136301;23;20017;-42
2023/08/20 04:45:41;;;;;;;18.70;3.58;;;;;;;;;;6129798;23;20013;-43
2023/08/20 04:48:09;;;;;;;14.88;3.50;;;;;;;;;;6125978;23;20014;-42
2023/08/20 04:50:37;;;;;;;21.27;4.27;;;;;;;;;;6116939;23;20017;-43
2023/08/20 04:53:05;;;;;;;18.98;4.53;;;;;;;;;;6127606;23;20013;-42
2023/08/20 04:55:34;;;;;;;17.02;3.63;;;;;;;;;;6125451;23;20084;-42
2023/08/20 04:58:02;;;;;;;15.15;3.95;;;;;;;;;;6128364;23;20021;-42
2023/08/20 05:00:30;;;;;;;17.70;4.10;;;;;;;;;;6123769;23;20123;-44
2023/08/20 05:02:58;;;;;;;19.53;3.63;;;;;;;;;;6140235;23;20029;-42
2023/08/20 05:05:26;;;;;;;18.77;4.05;;;;;;;;;;6132211;23;20105;-43
2023/08/20 05:07:54;;;;;;;14.23;3.35;;;;;;;;;;6116350;23;20017;-42
2023/08/20 05:10:22;;;;;;;21.85;4.35;;;;;;;;;;6130770;23;20022;-45
2023/08/20 05:12:51;;;;;;;18.40;4.38;;;;;;;;;;6145040;23;20017;-44
2023/08/20 05:15:19;;;;;;;16.23;3.83;;;;;;;;;;6133237;23;20354;-42
2023/08/20 05:17:46;;;;;;;15.20;3.65;;;;;;;;;;6126343;23;20022;-43
2023/08/20 05:20:14;;;;;;;16.73;4.35;;;;;;;;;;6125469;23;20452;-43
2023/08/20 05:22:42;;;;;;;12.75;3.50;;;;;;;;;;6125375;23;20022;-42
2023/08/20 05:25:10;;;;;;;19.10;3.30;;;;;;;;;;6122909;23;20258;-42
2023/08/20 05:27:38;;;;;;;18.87;3.70;;;;;;;;;;6144675;23;20017;-42
2023/08/20 05:30:08;;;;;;;18.40;3.10;;;;;;;;;;6124656;23;20021;-44
2023/08/20 05:32:38;;;;;;;14.27;3.05;;;;;;;;;;6107858;23;20017;-42
2023/08/20 05:35:06;;;;;;;18.05;4.22;;;;;;;;;;6127685;23;20028;-42
2023/08/20 05:37:34;;;;;;;15.15;3.72;;;;;;;;;;6119967;23;20032;-43
2023/08/20 05:40:02;;;;;;;16.33;4.07;;;;;;;;;;6131791;23;20514;-42
2023/08/20 05:42:33;;;;;;;15.20;3.88;;;;;;;;;;6127147;23;20652;-42
2023/08/20 05:45:01;;;;;;;14.40;3.45;;;;;;;;;;6124904;23;20017;-42
2023/08/20 05:47:30;;;;;;;14.27;3.17;;;;;;;;;;6118825;23;20337;-42
2023/08/20 05:49:58;;;;;;;18.77;3.70;;;;;;;;;;6127635;23;20096;-42
2023/08/20 05:52:26;;;;;;;16.03;3.90;;;;;;;;;;6122289;23;20526;-42
2023/08/20 05:54:54;;;;;;;18.85;4.05;;;;;;;;;;6127046;23;20010;-42
2023/08/20 05:57:21;;;;;;;13.85;3.30;;;;;;;;;;6128511;23;20028;-42
2023/08/20 05:59:49;;;;;;;17.30;3.92;;;;;;;;;;6119484;23;20017;-43
2023/08/20 06:02:17;;;;;;;10.95;3.10;;;;;;;;;;6118166;23;20022;-42
2023/08/20 06:04:46;;;;;;;13.27;2.80;;;;;;;;;;6121384;23;20044;-42
2023/08/20 06:07:14;;;;;;;20.55;4.50;;;;;;;;;;6119278;23;20484;-42
2023/08/20 06:09:42;;;;;;;13.40;3.30;;;;;;;;;;6128692;23;20550;-43
2023/08/20 06:12:11;;;;;;;21.38;3.38;;;;;;;;;;6130404;23;20367;-41
2023/08/20 06:14:40;;;;;;;15.02;3.30;;;;;;;;;;6125995;23;20064;-43
2023/08/20 06:17:11;;;;;;;14.33;3.10;;;;;;;;;;6122466;23;20025;-42
2023/08/20 06:19:38;;;;;;;18.98;3.30;;;;;;;;;;6119537;23;20021;-41
2023/08/20 06:22:07;;;;;;;17.05;3.65;;;;;;;;;;6121502;23;20028;-45
2023/08/20 06:24:35;;;;;;;17.00;3.33;;;;;;;;;;6118221;23;20623;-41
2023/08/20 06:27:04;;;;;;;16.13;3.35;;;;;;;;;;6128122;23;20017;-43
2023/08/20 06:29:32;;;;;;;15.30;3.70;;;;;;;;;;6122526;23;20013;-42
2023/08/20 06:32:00;;;;;;;13.10;3.47;;;;;;;;;;6123529;23;20045;-43
2023/08/20 06:34:28;;;;;;;16.55;3.30;;;;;;;;;;6122685;23;20021;-44
2023/08/20 06:36:56;;;;;;;17.38;3.28;;;;;;;;;;6125457;23;20827;-42
2023/08/20 06:39:25;;;;;;;14.98;3.40;;;;;;;;;;6117215;23;20423;-43
2023/08/20 06:41:53;;;;;;;13.77;3.37;;;;;;;;;;6123489;23;20029;-43
2023/08/20 06:44:20;;;;;;;13.77;3.80;;;;;;;;;;6125403;23;20018;-43
2023/08/20 06:46:48;;;;;;;17.10;3.42;;;;;;;;;;6111359;23;20035;-42
2023/08/20 06:49:15;;;;;;;14.35;4.05;;;;;;;;;;6114777;23;20021;-43
2023/08/20 06:51:43;;;;;;;14.35;3.00;;;;;;;;;;6128662;23;20092;-42
2023/08/20 06:54:11;;;;;;;15.60;3.23;;;;;;;;;;6119388;23;20018;-42
2023/08/20 06:56:40;;;;;;;15.95;3.47;;;;;;;;;;6115626;23;20053;-42
2023/08/20 06:59:07;;;;;;;14.90;3.47;;;;;;;;;;6127781;23;20170;-43
2023/08/20 07:01:35;;;;;;;11.60;2.75;;;;;;;;;;6112639;23;20479;-42
2023/08/20 07:04:03;;;;;;;12.90;3.00;;;;;;;;;;6124789;23;20441;-42
2023/08/20 07:06:32;;;;;;;11.60;3.17;;;;;;;;;;6112939;23;20515;-42
2023/08/20 07:08:59;;;;;;;20.40;3.85;;;;;;;;;;6122969;23;20607;-44
2023/08/20 07:11:27;;;;;;;20.80;4.00;;;;;;;;;;6115053;23;20017;-47
2023/08/20 07:13:56;;;;;;;13.13;2.90;;;;;;;;;;6118327;23;20018;-42
2023/08/20 07:16:24;;;;;;;12.25;3.00;;;;;;;;;;6121682;23;20029;-42
2023/08/20 07:18:52;;;;;;;14.90;3.30;;;;;;;;;;6127210;23;20068;-41
2023/08/20 07:21:20;;;;;;;12.27;2.85;;;;;;;;;;6115117;23;20017;-41
2023/08/20 07:23:48;;;;;;;12.25;3.17;;;;;;;;;;6131053;23;20088;-42
2023/08/20 07:26:16;;;;;;;11.18;2.53;;;;;;;;;;6120990;23;20013;-42
2023/08/20 07:28:59;;;;;;;13.65;2.45;;;;;;;;;;6108545;23;20021;-42
2023/08/20 07:31:29;;;;;;;14.33;3.53;;;;;;;;;;6120388;23;20661;-47
2023/08/20 07:33:57;;;;;;;12.90;2.53;;;;;;;;;;6114466;23;20017;-44
2023/08/20 07:36:32;;;;;;;12.15;3.33;;;;;;;;;;6125488;23;20432;-44
2023/08/20 07:39:00;;;;;;;10.13;2.53;;;;;;;;;;6119140;23;20124;-45
2023/08/20 07:41:29;;;;;;;11.95;2.92;;;;;;;;;;6128521;23;20835;-43
2023/08/20 07:43:57;;;;;;;14.53;3.10;;;;;;;;;;6121921;23;20036;-42
2023/08/20 07:46:25;;;;;;;9.45;2.65;;;;;;;;;;6129059;23;20441;-42
2023/08/20 07:48:55;;;;;;;11.25;3.03;;;;;;;;;;6127865;23;20017;-43
2023/08/20 07:51:23;;;;;;;13.85;2.75;;;;;;;;;;6132363;23;20174;-44
2023/08/20 07:53:50;;;;;;;12.13;2.40;;;;;;;;;;6153806;23;20024;-42
2023/08/20 07:56:18;;;;;;;13.50;2.30;;;;;;;;;;6134639;23;20021;-42
2023/08/20 07:58:46;;;;;;;13.48;2.60;;;;;;;;;;6115975;23;20022;-43
2023/08/20 08:01:14;;;;;;;10.57;2.83;;;;;;;;;;6131225;23;20034;-42
2023/08/20 08:03:44;;;;;;;11.70;2.75;;;;;;;;;;6148983;23;20333;-43
2023/08/20 08:06:13;;;;;;;12.45;2.60;;;;;;;;;;6118255;23;20062;-46
2023/08/20 08:08:43;;;;;;;10.37;2.87;;;;;;;;;;6126865;23;20018;-42
2023/08/20 08:11:11;;;;;;;10.88;2.40;;;;;;;;;;6122681;23;20013;-43
2023/08/20 08:13:38;;;;;;;11.18;2.53;;;;;;;;;;6127409;23;20025;-44
2023/08/20 08:16:06;;;;;;;17.63;2.75;;;;;;;;;;6124230;23;20021;-47
2023/08/20 08:18:34;;;;;;;10.68;2.25;;;;;;;;;;6123049;23;20021;-42
2023/08/20 08:21:02;;;;;;;9.03;2.47;;;;;;;;;;6131459;23;20021;-46
2023/08/20 08:23:31;;;;;;;9.60;2.42;;;;;;;;;;6114838;23;20467;-44
2023/08/20 08:25:59;;;;;;;10.25;2.75;;;;;;;;;;6130417;23;20029;-43
2023/08/20 08:28:27;;;;;;;15.13;2.65;;;;;;;;;;6128772;23;20044;-42
2023/08/20 08:30:55;;;;;;;13.30;2.60;;;;;;;;;;6129126;23;20101;-42
2023/08/20 08:33:25;;;;;;;9.97;2.10;;;;;;;;;;6130318;23;20346;-42
2023/08/20 08:35:53;;;;;;;12.07;2.85;;;;;;;;;;6127425;23;20029;-45
2023/08/20 08:38:21;;;;;;;13.10;3.10;;;;;;;;;;6130664;23;20029;-42
2023/08/20 08:40:52;;;;;;;8.98;2.47;;;;;;;;;;6119432;23;20018;-44
2023/08/20 08:43:20;;;;;;;10.15;2.28;;;;;;;;;;6130386;23;20014;-43
2023/08/20 08:45:48;;;;;;;9.47;2.30;;;;;;;;;;6125680;23;20021;-43
2023/08/20 08:48:16;;;;;;;12.48;2.90;;;;;;;;;;6125317;23;20076;-43
2023/08/20 08:50:50;;;;;;;13.15;2.33;;;;;;;;;;6120816;23;20555;-44
2023/08/20 08:53:18;;;;;;;6.30;1.83;;;;;;;;;;6128685;23;20021;-43
2023/08/20 08:55:46;;;;;;;14.23;2.33;;;;;;;;;;6120907;23;20028;-43
2023/08/20 08:58:15;;;;;;;11.67;2.40;;;;;;;;;;6118206;23;20022;-43
2023/08/20 09:00:43;;;;;;;8.85;1.90;;;;;;;;;;6131215;23;20025;-44
2023/08/20 09:03:11;;;;;;;9.30;2.22;;;;;;;;;;6119100;23;20021;-42
2023/08/20 09:05:48;;;;;;;6.55;1.70;;;;;;;;;;6128933;23;20036;-43
2023/08/20 09:08:27;;;;;;;7.22;2.00;;;;;;;;;;6123507;23;20108;-43
2023/08/20 09:10:57;;;;;;;8.23;1.70;;;;;;;;;;6125442;23;20024;-44
2023/08/20 09:13:27;;;;;;;10.93;2.08;;;;;;;;;;6151835;23;20025;-42
2023/08/20 09:15:57;;;;;;;8.07;2.05;;;;;;;;;;6118312;23;20017;-43
2023/08/20 09:18:25;;;;;;;9.25;1.95;;;;;;;;;;6130124;23;20503;-45
2023/08/20 09:20:52;;;;;;;9.10;2.00;;;;;;;;;;6117947;23;20017;-42
2023/08/20 09:23:20;;;;;;;6.07;2.00;;;;;;;;;;6122464;23;20018;-43
2023/08/20 09:25:48;;;;;;;11.13;2.45;;;;;;;;;;6123288;23;20021;-43
2023/08/20 09:28:15;;;;;;;9.82;2.20;;;;;;;;;;6124312;23;20346;-43
2023/08/20 09:30:58;;;;;;;7.75;1.80;;;;;;;;;;6121962;23;20018;-42
2023/08/20 09:33:26;;;;;;;9.30;2.15;;;;;;;;;;6123412;23;20013;-42
2023/08/20 09:35:54;;;;;;;9.70;1.47;;;;;;;;;;6123536;23;20465;-42
2023/08/20 09:38:23;;;;;;;10.10;1.10;;;;;;;;;;6128419;23;20586;-43
2023/08/20 09:40:52;;;;;;;7.68;1.52;;;;;;;;;;6126447;23;20484;-42
2023/08/20 09:43:20;;;;;;;5.88;0.93;;;;;;;;;;6124579;23;20017;-43
2023/08/20 09:45:48;;;;;;;7.18;1.85;;;;;;;;;;6119869;23;20032;-45
2023/08/20 09:48:18;;;;;;;8.90;1.70;;;;;;;;;;6121133;23;20010;-43
2023/08/20 09:50:47;;;;;;;9.15;1.80;;;;;;;;;;6100078;23;20018;-42
2023/08/20 09:53:21;;;;;;;7.75;2.13;;;;;;;;;;6130250;23;20041;-43
2023/08/20 09:55:50;;;;;;;8.50;1.90;;;;;;;;;;6128568;23;20021;-42
2023/08/20 09:58:21;;;;;;;7.43;1.67;;;;;;;;;;6120238;23;20466;-43
2023/08/20 10:00:49;;;;;;;8.13;2.20;;;;;;;;;;6129231;23;20610;-42
2023/08/20 10:03:19;;;;;;;10.45;2.25;;;;;;;;;;6122403;23;20025;-42
2023/08/20 10:05:47;;;;;;;8.93;2.00;;;;;;;;;;6129291;23;20021;-42
2023/08/20 10:08:16;;;;;;;10.32;2.05;;;;;;;;;;6114330;23;20018;-42
2023/08/20 10:10:43;;;;;;;9.80;2.17;;;;;;;;;;6124456;23;20020;-43
2023/08/20 10:13:13;;;;;;;11.97;2.00;;;;;;;;;;6146977;23;20021;-43
2023/08/20 10:15:42;;;;;;;7.72;1.83;;;;;;;;;;6122136;23;20018;-43
2023/08/20 10:18:13;;;;;;;10.98;1.67;;;;;;;;;;6124309;23;20404;-43
2023/08/20 10:20:42;;;;;;;7.88;1.85;;;;;;;;;;6121471;23;20056;-42
2023/08/20 10:23:12;;;;;;;7.60;1.60;;;;;;;;;;6118971;23;20075;-42
2023/08/20 10:25:44;;;;;;;7.10;1.40;;;;;;;;;;6111864;23;20064;-44
2023/08/20 10:28:14;;;;;;;9.60;1.80;;;;;;;;;;6117394;23;20511;-43
2023/08/20 10:31:08;;;;;;;7.70;1.52;;;;;;;;;;6124146;23;20520;-43
2023/08/20 10:33:36;;;;;;;8.40;1.45;;;;;;;;;;6105973;23;20523;-42
2023/08/20 10:36:14;;;;;;;8.55;1.95;;;;;;;;;;6118675;23;20039;-45
2023/08/20 10:38:42;;;;;;;8.70;1.60;;;;;;;;;;6124906;23;20041;-42
2023/08/20 10:41:09;;;;;;;10.32;1.30;;;;;;;;;;6119952;23;20017;-44
2023/08/20 10:43:38;;;;;;;6.15;1.40;;;;;;;;;;6123654;23;20017;-42
2023/08/20 10:46:09;;;;;;;7.93;1.73;;;;;;;;;;6121801;23;20021;-42
2023/08/20 10:48:38;;;;;;;5.65;1.50;;;;;;;;;;6128111;23;20428;-42
2023/08/20 10:51:07;;;;;;;6.03;1.40;;;;;;;;;;6111094;23;20041;-42
2023/08/20 10:53:36;;;;;;;7.38;1.42;;;;;;;;;;6124002;23;20444;-42
2023/08/20 10:56:11;;;;;;;8.38;1.75;;;;;;;;;;6131423;23;20013;-43
2023/08/20 10:58:42;;;;;;;5.78;1.50;;;;;;;;;;6120234;23;20025;-42
2023/08/20 11:01:15;;;;;;;7.22;0.90;;;;;;;;;;6127659;23;20021;-44
2023/08/20 11:03:46;;;;;;;6.47;1.10;;;;;;;;;;6143984;23;20022;-43
2023/08/20 11:06:16;;;;;;;5.82;1.00;;;;;;;;;;6123132;23;20017;-45
2023/08/20 11:08:45;;;;;;;6.40;1.60;;;;;;;;;;6125946;23;20014;-46
2023/08/20 11:11:14;;;;;;;6.63;1.63;;;;;;;;;;6124746;23;20018;-44
2023/08/20 11:13:42;;;;;;;6.25;1.25;;;;;;;;;;6126606;23;20013;-43
2023/08/20 11:16:10;;;;;;;5.27;1.20;;;;;;;;;;6109948;23;20324;-42
2023/08/20 11:18:38;;;;;;;6.80;1.17;;;;;;;;;;6125298;23;20028;-43
2023/08/20 11:21:06;;;;;;;6.45;1.10;;;;;;;;;;6122717;23;20445;-43
2023/08/20 11:23:33;;;;;;;9.45;1.35;;;;;;;;;;6117293;23;20021;-43
2023/08/20 11:26:03;;;;;;;7.05;1.33;;;;;;;;;;6115847;23;20021;-44
2023/08/20 11:28:30;;;;;;;7.37;1.17;;;;;;;;;;6119476;23;20885;-45
2023/08/20 11:30:58;;;;;;;6.15;1.20;;;;;;;;;;6120928;23;20097;-43
2023/08/20 11:33:27;;;;;;;7.60;1.80;;;;;;;;;;6152456;23;20113;-42
2023/08/20 11:35:55;;;;;;;7.00;1.25;;;;;;;;;;6116664;23;20024;-45
2023/08/20 11:38:25;;;;;;;6.90;1.17;;;;;;;;;;6130089;23;20034;-43
2023/08/20 11:40:55;;;;;;;4.83;1.30;;;;;;;;;;6115461;23;20648;-42
2023/08/20 11:43:24;;;;;;;5.53;0.98;;;;;;;;;;6122124;23;20483;-43
2023/08/20 11:45:51;;;;;;;6.45;1.20;;;;;;;;;;6124883;23;20025;-45
2023/08/20 11:48:21;;;;;;;8.32;1.20;;;;;;;;;;6124552;23;20013;-44
2023/08/20 11:50:50;;;;;;;6.43;1.73;;;;;;;;;;6114995;23;20600;-44
2023/08/20 11:53:21;;;;;;;5.80;1.00;;;;;;;;;;6124895;23;20021;-44
2023/08/20 11:55:49;;;;;;;6.72;1.50;;;;;;;;;;6127341;23;20584;-42
2023/08/20 11:58:19;;;;;;;5.90;1.52;;;;;;;;;;6114936;23;20423;-44
2023/08/20 12:00:51;;;;;;;7.25;1.40;;;;;;;;;;6150112;23;20344;-43
2023/08/20 12:03:19;;;;;;;6.20;1.58;;;;;;;;;;6113608;23;20483;-44
2023/08/20 12:05:46;;;;;;;4.73;1.40;;;;;;;;;;6125475;23;20064;-44
2023/08/20 12:08:16;;;;;;;7.28;1.60;;;;;;;;;;6120392;23;20026;-42
2023/08/20 12:10:43;;;;;;;5.57;1.55;;;;;;;;;;6122457;23;20017;-43
2023/08/20 12:13:11;;;;;;;8.30;1.42;;;;;;;;;;6123520;23;20024;-44
2023/08/20 12:15:39;;;;;;;7.45;1.58;;;;;;;;;;6116623;23;20086;-43
2023/08/20 12:18:10;;;;;;;7.50;1.30;;;;;;;;;;6128333;23;20017;-43
2023/08/20 12:20:37;;;;;;;5.43;1.45;;;;;;;;;;6122979;23;20962;-43
2023/08/20 12:23:07;;;;;;;7.60;1.50;;;;;;;;;;6122574;23;20013;-45
2023/08/20 12:25:36;;;;;;;4.05;1.20;;;;;;;;;;6122800;23;20097;-43
2023/08/20 12:28:05;;;;;;;5.90;1.40;;;;;;;;;;6148396;23;20332;-44
2023/08/20 12:30:33;;;;;;;5.67;1.30;;;;;;;;;;6122624;23;20639;-43
2023/08/20 12:33:05;;;;;;;4.85;1.20;;;;;;;;;;6131095;23;20013;-44
2023/08/20 12:35:35;;;;;;;7.35;1.52;;;;;;;;;;6124516;23;20028;-43
2023/08/20 12:38:03;;;;;;;4.57;1.05;;;;;;;;;;6119389;23;20072;-44
2023/08/20 12:40:31;;;;;;;8.85;1.75;;;;;;;;;;6132321;23;20021;-43
2023/08/20 12:42:59;;;;;;;6.80;1.30;;;;;;;;;;6121836;23;20013;-43
2023/08/20 12:45:27;;;;;;;4.82;1.50;;;;;;;;;;6131261;23;20028;-44
2023/08/20 12:47:55;;;;;;;6.57;1.35;;;;;;;;;;6123996;23;20472;-43
2023/08/20 12:50:27;;;;;;;4.50;1.00;;;;;;;;;;6130638;23;20659;-46
2023/08/20 12:52:58;;;;;;;6.78;1.27;;;;;;;;;;6128826;23;20040;-42
2023/08/20 12:55:26;;;;;;;6.27;1.40;;;;;;;;;;6123294;23;20033;-43
2023/08/20 12:57:55;;;;;;;9.18;1.50;;;;;;;;;;6131300;23;20517;-43
2023/08/20 13:00:24;;;;;;;7.38;1.65;;;;;;;;;;6123131;23;20013;-43
2023/08/20 13:02:57;;;;;;;4.63;1.20;;;;;;;;;;6126641;23;20047;-43
2023/08/20 13:05:27;;;;;;;6.32;1.33;;;;;;;;;;6126795;23;20041;-45
2023/08/20 13:07:55;;;;;;;6.27;1.80;;;;;;;;;;6121810;23;20026;-42
2023/08/20 13:10:24;;;;;;;4.10;1.20;;;;;;;;;;6133145;23;20025;-46
2023/08/20 13:12:54;;;;;;;4.57;1.02;;;;;;;;;;6126486;23;20044;-43
2023/08/20 13:15:22;;;;;;;4.70;1.10;;;;;;;;;;6128192;23;20017;-43
2023/08/20 13:17:50;;;;;;;7.45;1.38;;;;;;;;;;6125067;23;20024;-45
2023/08/20 13:20:21;;;;;;;6.67;1.50;;;;;;;;;;6110281;23;20423;-43
2023/08/20 13:22:49;;;;;;;5.07;0.90;;;;;;;;;;6125192;23;20053;-43
2023/08/20 13:25:17;;;;;;;7.75;1.25;;;;;;;;;;6118335;23;20067;-44
2023/08/20 13:27:48;;;;;;;4.70;1.05;;;;;;;;;;6125503;23;20499;-43
2023/08/20 13:30:16;;;;;;;7.28;1.48;;;;;;;;;;6125298;23;20510;-44
2023/08/20 13:32:43;;;;;;;5.00;1.03;;;;;;;;;;6116245;23;20017;-44
2023/08/20 13:35:11;;;;;;;5.40;1.30;;;;;;;;;;6130517;23;20176;-44
2023/08/20 13:37:39;;;;;;;10.00;2.10;;;;;;;;;;6122657;23;20046;-42
2023/08/20 13:40:09;;;;;;;8.30;1.65;;;;;;;;;;6131689;23;20018;-47
2023/08/20 13:42:36;;;;;;;5.38;1.20;;;;;;;;;;6103702;23;20040;-43
2023/08/20 13:45:07;;;;;;;6.73;2.13;;;;;;;;;;6135822;23;20484;-44
2023/08/20 13:47:35;;;;;;;5.93;1.30;;;;;;;;;;6088326;23;20679;-43
2023/08/20 13:50:04;;;;;;;4.57;0.90;;;;;;;;;;6123478;23;20018;-44
2023/08/20 13:52:32;;;;;;;7.75;1.48;;;;;;;;;;6125488;23;20017;-43
2023/08/20 13:54:59;;;;;;;8.10;1.33;;;;;;;;;;6121039;23;20019;-43
2023/08/20 13:57:27;;;;;;;4.53;0.90;;;;;;;;;;6114553;23;20320;-44
2023/08/20 13:59:55;;;;;;;7.20;1.70;;;;;;;;;;6127946;23;20032;-45
2023/08/20 14:02:24;;;;;;;4.97;1.20;;;;;;;;;;6121702;23;20448;-43
2023/08/20 14:04:52;;;;;;;5.82;1.40;;;;;;;;;;6125918;23;20021;-45
2023/08/20 14:07:20;;;;;;;6.63;1.88;;;;;;;;;;6120041;23;20017;-45
2023/08/20 14:09:47;;;;;;;7.67;1.17;;;;;;;;;;6128274;23;20017;-43
2023/08/20 14:12:17;;;;;;;4.47;1.45;;;;;;;;;;6118917;23;20440;-44
2023/08/20 14:14:44;;;;;;;6.75;1.92;;;;;;;;;;6127611;23;20024;-43
2023/08/20 14:17:12;;;;;;;7.38;1.52;;;;;;;;;;6126395;23;20017;-44
2023/08/20 14:19:41;;;;;;;6.47;1.42;;;;;;;;;;6144837;23;20024;-44
2023/08/20 14:22:09;;;;;;;5.60;1.63;;;;;;;;;;6128383;23;20024;-43
2023/08/20 14:24:37;;;;;;;10.05;2.03;;;;;;;;;;6115918;23;20013;-45
2023/08/20 14:27:07;;;;;;;9.60;2.45;;;;;;;;;;6130021;23;20021;-42
2023/08/20 14:29:34;;;;;;;5.35;1.70;;;;;;;;;;6123574;23;20022;-44
2023/08/20 14:32:02;;;;;;;6.93;1.60;;;;;;;;;;6129479;23;20029;-43
2023/08/20 14:34:30;;;;;;;6.40;1.47;;;;;;;;;;6112191;23;20822;-43
2023/08/20 14:36:59;;;;;;;6.38;1.88;;;;;;;;;;6130926;23;20026;-42
2023/08/20 14:39:27;;;;;;;8.50;1.95;;;;;;;;;;6120167;23;20025;-42
2023/08/20 14:41:55;;;;;;;6.28;1.70;;;;;;;;;;6130665;23;20017;-44
2023/08/20 14:44:22;;;;;;;6.78;1.55;;;;;;;;;;6120159;23;20014;-42